Sedgwick Reserve, California Weather observations

Data are for 10 minute period ending at time listed.
 Day   Time   Solar   Ave.   Ave.  Ave.  Vector  Max.   Baro.   Total    
  of    of     Rad.   Air    Rel.  Wind   Wind   Wind  Press.  Precip.   
Year   Day            Temp.  Hum.  Speed  Dir.   Gust                    
2016   (PST)  Kw/m2    F      %     mph   deg.    mph    mb.     in.     
-------------------------------------------------------------------------
 146   18:30   0.06   56.7    76    9.2   278    19.2   976.1    0.00 
 146   18:40   0.04   56.2    78    9.4   275    14.3   976.1    0.00 
 146   18:50   0.01   55.5    79    7.4   272    15.9   976.1    0.00 
 146   19:00   0.01   55.0    80    7.0   274    13.4   976.2    0.00 
 146   19:10   0.00   54.7    82    5.9   276    13.4   976.2    0.00 
 146   19:20   0.00   54.4    82    5.6   283    11.5   976.3    0.00 
 146   19:30   0.00   54.2    83    8.8   276    15.0   976.4    0.00 
 146   19:40   0.00   53.9    84    7.7   270    12.7   976.4    0.00 
 146   19:50   0.00   53.6    85    6.4   275    12.8   976.5    0.00 
 146   20:00   0.00   53.4    86    3.0   268     7.6   976.6    0.00 
 146   20:10   0.00   53.2    86    3.2   287     7.7   976.7    0.00 
 146   20:20   0.00   53.0    87    2.8   277     6.1   976.7    0.00 
 146   20:30   0.00   52.9    87    2.1   273     5.1   976.7    0.00 
 146   20:40   0.00   52.7    88    1.5   266     4.6   976.8    0.00 
 146   20:50   0.00   52.7    88    2.7   231     6.1   976.9    0.00 
 146   21:00   0.00   52.8    88    3.5   253     8.4   976.9    0.00 
 146   21:10   0.00   52.8    88    2.2   218     4.3   976.9    0.00 
 146   21:20   0.00   52.8    88    3.8   260     6.7   976.8    0.00 
 146   21:30   0.00   52.8    88    2.8   283     5.8   976.9    0.00 
 146   21:40   0.00   52.8    88    3.0   295     5.5   976.9    0.00 
 146   21:50   0.00   52.8    89    2.3   310     5.3   976.9    0.00 
 146   22:00   0.00   52.6    89    3.0   315     8.4   976.8    0.00 
 146   22:10   0.00   52.5    89    2.3   300     9.0   976.8    0.00 
 146   22:20   0.00   52.5    89    1.7   316     6.3   976.7    0.00 
 146   22:30   0.00   52.3    89    1.9   307     6.1   976.7    0.00 
 146   22:40   0.00   52.1    89    1.1   270     4.7   976.6    0.00 
 146   22:50   0.00   51.8    90    1.8   282     5.0   976.7    0.00 
 146   23:00   0.00   51.6    90    2.6   293     5.2   976.6    0.00 
 146   23:10   0.00   51.9    90    3.4   301     5.1   976.6    0.00 
 146   23:20   0.00   51.7    89    3.5   307     6.9   976.5    0.00 
 146   23:30   0.00   51.9    89    3.6   311     6.4   976.5    0.00 
 146   23:40   0.00   51.5    89    1.2   310     3.6   976.5    0.00 
 146   23:50   0.00   51.2    90    1.9   293     3.8   976.3    0.00 
 147    0:00   0.00   51.9    90    3.4   313     9.6   976.2    0.00 
 147    0:10   0.00   51.9    89    1.8   332     3.7   976.3    0.00 
 147    0:20   0.00   51.7    90    1.5   334     3.1   976.2    0.00 
 147    0:30   0.00   52.1    90    1.2   293     4.8   976.1    0.00 
 147    0:40   0.00   52.1    89    0.8   337     3.2   976.1    0.00 
 147    0:50   0.00   52.0    89    0.5    36     1.8   976.0    0.00 
 147    1:00   0.00   52.2    89    0.9   193     2.3   975.9    0.00 
 147    1:10   0.00   52.5    89    1.7    37     3.0   975.7    0.00 
 147    1:20   0.00   52.4    89    3.1    73     5.2   975.6    0.00 
 147    1:30   0.00   52.4    88    3.3    77     5.8   975.6    0.00 
 147    1:40   0.00   52.4    88    3.3    78     6.4   975.5    0.00 
 147    1:50   0.00   52.3    87    3.4   116     5.9   975.4    0.00 
 147    2:00   0.00   52.4    86    3.8   138     7.1   975.4    0.00 
 147    2:10   0.00   52.4    86    3.8   135     6.9   975.4    0.00 
 147    2:20   0.00   52.4    86    3.5   122     6.4   975.3    0.00 
 147    2:30   0.00   52.4    86    3.2   128     6.4   975.2    0.00 
 147    2:40   0.00   52.4    86    3.5   136     5.5   975.2    0.00 
 147    2:50   0.00   52.5    86    2.9   119     6.1   975.2    0.00 
 147    3:00   0.00   52.5    86    2.2   120     4.8   975.1    0.00 
 147    3:10   0.00   52.5    86    1.9   132     3.4   975.0    0.00 
 147    3:20   0.00   52.5    86    2.0   168     4.1   975.0    0.00 
 147    3:30   0.00   52.5    85    2.5   166     3.7   975.1    0.00 
 147    3:40   0.00   52.5    85    1.9   102     4.2   975.1    0.00 
 147    3:50   0.00   52.4    85    2.8    78     4.8   975.0    0.00 
 147    4:00   0.00   52.5    85    0.9    55     2.6   975.1    0.00 
 147    4:10   0.00   52.6    85    1.8   260     2.9   975.3    0.00 
 147    4:20   0.00   52.5    85    1.2   260     2.4   975.4    0.00 
 147    4:30   0.00   52.7    85    2.1   349     4.9   975.4    0.00 
 147    4:40   0.00   52.4    86    3.3   356     5.2   975.4    0.00 
 147    4:50   0.00   52.3    86    2.3   322     4.7   975.4    0.00 
 147    5:00   0.00   52.2    86    2.4   292     4.6   975.6    0.00 
 147    5:10   0.00   52.2    86    1.7   352     3.0   975.6    0.00 
 147    5:20   0.01   52.2    86    1.8   292     4.1   975.8    0.00 
 147    5:30   0.01   51.9    87    4.3   278     6.9   975.9    0.00 
 147    5:40   0.03   51.3    88    5.8   287     8.6   976.0    0.00 
 147    5:50   0.03   51.0    89    5.8   283     7.9   976.1    0.00 
 147    6:00   0.04   51.0    90    5.5   283     7.6   976.2    0.00 
 147    6:10   0.04   51.2    89    5.3   291     7.7   976.3    0.00 
 147    6:20   0.05   51.2    89    5.2   275     7.6   976.3    0.00 
 147    6:30   0.06   51.3    89    5.2   267     6.8   976.4    0.00 
 147    6:40   0.07   51.3    89    5.6   273     7.2   976.6    0.00 
 147    6:50   0.08   51.4    89    4.1   276     6.4   976.6    0.00 
 147    7:00   0.09   51.8    88    2.9   283     5.0   976.6    0.00 
 147    7:10   0.10   52.1    87    4.2   254     7.2   976.6    0.00 
 147    7:20   0.12   52.2    88    2.6   260     5.4   976.6    0.00 
 147    7:30   0.15   52.7    86    1.1   265     3.4   976.6    0.00 
 147    7:40   0.17   53.7    83    1.4   252     2.7   976.6    0.00 
 147    7:50   0.17   53.5    83    3.2   235     5.8   976.6    0.00 
 147    8:00   0.19   53.6    82    4.0   269     6.5   976.5    0.00 
 147    8:10   0.23   53.7    82    2.8   318     5.6   976.5    0.00 
 147    8:20   0.29   54.9    79    2.2   353     4.5   976.4    0.00 
 147    8:30   0.31   55.5    78    1.0   114     4.8   976.4    0.00 
 147    8:40   0.34   55.4    78    4.8   246     7.5   976.4    0.00 
 147    8:50   0.40   56.1    77    3.1   178     6.6   976.4    0.00 
 147    9:00   0.41   57.1    75    4.6   266     9.1   976.4    0.00 
 147    9:10   0.45   56.6    76    6.7   259    10.7   976.4    0.00 
 147    9:20   0.50   56.9    76    6.0   269    11.3   976.5    0.00 
 147    9:30   0.85   58.1    73    7.4   242    11.4   976.5    0.00 
 147    9:40   0.75   59.2    71    6.6   264    10.6   976.5    0.00 
 147    9:50   0.83   60.0    69    5.2   262    11.4   976.4    0.00 
 147   10:00   0.85   62.2    65    5.4   224     9.7   976.3    0.00 
 147   10:10   0.87   62.4    64    6.4   243    12.1   976.3    0.00 
 147   10:20   0.88   63.2    63    7.5   258    11.5   976.3    0.00 
 147   10:30   0.89   63.4    62    6.2   248    10.7   976.3    0.00 
 147   10:40   0.91   63.8    61    7.5   254    14.3   976.3    0.00 
 147   10:50   0.92   65.5    58    7.7   269    15.4   976.0    0.00 
 147   11:00   0.93   66.9    55    7.9   252    13.8   975.9    0.00 
 147   11:10   0.94   67.2    55    8.5   234    14.1   975.8    0.00 
 147   11:20   0.91   67.6    54    8.5   244    16.0   975.7    0.00 
 147   11:30   0.95   68.4    52   10.0   252    18.3   975.6    0.00 
 147   11:40   0.95   68.2    52   11.1   254    17.4   975.5    0.00 
 147   11:50   0.96   69.0    51   10.4   254    20.7   975.4    0.00 
 147   12:00   0.96   70.3    49    8.3   261    15.3   975.3    0.00 
 147   12:10   0.96   71.8    47    9.9   293    19.6   975.2    0.00 
 147   12:20   0.95   71.0    48   11.3   282    19.6   975.2    0.00 
 147   12:30   0.95   70.3    49   11.8   272    18.3   975.1    0.00 
 147   12:40   0.95   69.7    49   13.4   271    21.5   975.0    0.00 
 147   12:50   0.94   69.4    50   14.1   274    20.6   975.0    0.00 
 147   13:00   0.94   70.7    48   11.1   284    19.8   974.9    0.00 
 147   13:10   0.93   70.2    48   12.9   274    22.6   974.8    0.00 
 147   13:20   0.91   70.3    48   13.5   284    21.5   974.8    0.00 
 147   13:30   0.90   70.0    48   12.9   271    21.9   974.7    0.00 
 147   13:40   0.89   69.5    49   12.5   274    20.4   974.6    0.00 
 147   13:50   0.88   69.9    48   12.8   289    22.9   974.6    0.00 
 147   14:00   0.85   69.0    50   15.2   294    26.4   974.6    0.00 
 147   14:10   0.84   67.8    52   14.3   277    26.5   974.5    0.00 
 147   14:20   0.82   68.0    52   14.0   283    22.1   974.5    0.00 
 147   14:30   0.79   67.6    52   15.6   280    23.9   974.4    0.00 
 147   14:40   0.77   66.2    54   17.1   276    26.5   974.3    0.00 
 147   14:50   0.74   66.3    54   15.4   271    24.9   974.2    0.00 
 147   15:00   0.72   66.1    55   17.6   278    25.3   974.2    0.00 
 147   15:10   0.69   66.1    55   15.9   279    23.7   974.2    0.00 
 147   15:20   0.67   65.7    56   15.9   278    23.4   974.1    0.00 
 147   15:30   0.64   64.7    57   18.7   272    27.6   974.0    0.00 
 147   15:40   0.61   64.5    57   18.0   276    26.0   973.9    0.00 
 147   15:50   0.58   64.7    57   17.5   273    26.3   973.8    0.00 
 147   16:00   0.55   64.9    57   16.3   272    26.9   973.8    0.00 
 147   16:10   0.52   64.1    58   16.4   271    23.9   973.6    0.00 
 147   16:20   0.48   64.5    58   14.8   269    21.9   973.5    0.00 
 147   16:30   0.45   64.1    59   14.9   272    21.3   973.4    0.00 
 147   16:40   0.41   64.0    59   13.8   275    21.0   973.3    0.00 
 147   16:50   0.38   63.9    60   14.5   273    21.3   973.2    0.00 
 147   17:00   0.34   64.0    60   13.0   278    19.3   973.2    0.00 
 147   17:10   0.31   63.8    60   12.0   278    19.6   973.2    0.00 
 147   17:20   0.27   63.2    61   11.1   279    16.7   973.2    0.00 
 147   17:30   0.24   63.1    62   10.2   279    17.0   973.2    0.00 
 147   17:40   0.21   62.3    64   11.2   274    17.2   973.1    0.00 
 147   17:50   0.18   62.3    64    8.5   277    13.5   973.1    0.00 
 147   18:00   0.14   62.7    63    5.9   298    10.6   973.0    0.00 
 147   18:10   0.12   62.6    63    4.6   264    12.1   973.1    0.00 
 147   18:20   0.09   61.5    65    4.5   282    14.1   973.0    0.00 

Return to Sedgwick Reserve graphs page.


Western Regional Climate Center,wrcc@dri.edu